createdAt,value
2023-05-06T00:02:18.713Z,12.20
2023-05-06T00:04:45.754Z,12.20
2023-05-06T00:07:13.258Z,12.10
2023-05-06T00:09:40.162Z,12.10
2023-05-06T00:12:07.103Z,12.10
2023-05-06T00:14:34.074Z,12.00
2023-05-06T00:17:04.032Z,12.00
2023-05-06T00:19:31.383Z,12.00
2023-05-06T00:21:59.155Z,11.90
2023-05-06T00:24:26.232Z,12.00
2023-05-06T00:26:53.543Z,12.00
2023-05-06T00:29:21.300Z,12.10
2023-05-06T00:31:48.647Z,12.00
2023-05-06T00:34:17.556Z,12.10
2023-05-06T00:36:44.926Z,12.10
2023-05-06T00:39:11.812Z,12.10
2023-05-06T00:41:38.715Z,12.10
2023-05-06T00:44:05.969Z,12.00
2023-05-06T00:46:33.605Z,12.00
2023-05-06T00:49:00.638Z,12.00
2023-05-06T00:51:28.249Z,11.90
2023-05-06T00:53:55.233Z,11.80
2023-05-06T00:56:22.433Z,11.80
2023-05-06T00:58:49.494Z,11.80
2023-05-06T01:01:17.898Z,11.70
2023-05-06T01:03:44.947Z,11.60
2023-05-06T01:06:31.774Z,11.60
2023-05-06T01:09:24.831Z,11.50
2023-05-06T01:12:09.778Z,11.50
2023-05-06T01:14:45.415Z,11.40
2023-05-06T01:17:18.608Z,11.30
2023-05-06T01:19:53.583Z,11.30
2023-05-06T01:22:21.184Z,11.30
2023-05-06T01:24:49.349Z,11.20
2023-05-06T01:27:19.686Z,11.20
2023-05-06T01:29:49.124Z,11.20
2023-05-06T01:32:19.532Z,11.20
2023-05-06T01:35:00.222Z,11.10
2023-05-06T01:37:38.845Z,11.10
2023-05-06T01:40:07.916Z,11.00
2023-05-06T01:42:36.423Z,11.00
2023-05-06T01:45:17.956Z,10.90
2023-05-06T01:47:45.887Z,10.90
2023-05-06T01:50:13.290Z,10.90
2023-05-06T01:52:40.549Z,10.80
2023-05-06T01:55:08.380Z,10.80
2023-05-06T01:57:35.994Z,10.70
2023-05-06T02:00:04.390Z,10.70
2023-05-06T02:02:31.357Z,10.70
2023-05-06T02:04:58.318Z,10.70
2023-05-06T02:07:25.196Z,10.70
2023-05-06T02:09:54.606Z,10.70
2023-05-06T02:12:23.024Z,10.70
2023-05-06T02:14:49.950Z,10.70
2023-05-06T02:17:19.463Z,10.70
2023-05-06T02:19:55.380Z,10.60
2023-05-06T02:22:29.805Z,10.60
2023-05-06T02:24:56.760Z,10.60
2023-05-06T02:27:23.916Z,10.60
2023-05-06T02:29:51.506Z,10.50
2023-05-06T02:32:21.705Z,10.50
2023-05-06T02:34:48.800Z,10.50
2023-05-06T02:37:15.931Z,10.50
2023-05-06T02:39:44.258Z,10.50
2023-05-06T02:42:14.726Z,10.40
2023-05-06T02:44:42.233Z,10.40
2023-05-06T02:47:09.091Z,10.40
2023-05-06T02:49:36.322Z,10.40
2023-05-06T02:52:03.333Z,10.40
2023-05-06T02:54:30.342Z,10.30
2023-05-06T02:56:57.302Z,10.30
2023-05-06T02:59:24.251Z,10.30
2023-05-06T03:01:51.334Z,10.30
2023-05-06T03:04:19.036Z,10.30
2023-05-06T03:06:58.944Z,10.30
2023-05-06T03:09:26.063Z,10.30
2023-05-06T03:11:53.195Z,10.30
2023-05-06T03:14:21.806Z,10.30
2023-05-06T03:16:48.847Z,10.30
2023-05-06T03:19:17.222Z,10.30
2023-05-06T03:21:44.537Z,10.30
2023-05-06T03:24:11.566Z,10.20
2023-05-06T03:26:38.382Z,10.20
2023-05-06T03:29:05.453Z,10.20
2023-05-06T03:31:32.550Z,10.20
2023-05-06T03:34:00.447Z,10.20
2023-05-06T03:36:28.038Z,10.20
2023-05-06T03:41:51.978Z,10.20
2023-05-06T03:44:21.302Z,10.10
2023-05-06T03:46:48.511Z,10.10
2023-05-06T03:49:15.544Z,10.10
2023-05-06T03:51:44.932Z,10.10
2023-05-06T03:54:12.066Z,10.10
2023-05-06T03:56:38.912Z,10.10
2023-05-06T03:59:07.270Z,10.10
2023-05-06T04:01:34.318Z,10.10
2023-05-06T04:04:04.294Z,10.10
2023-05-06T04:06:33.842Z,10.00
2023-05-06T04:09:00.815Z,10.00
2023-05-06T04:11:29.696Z,10.00
2023-05-06T04:13:59.405Z,10.00
2023-05-06T04:16:30.778Z,9.90
2023-05-06T04:18:58.773Z,9.90
2023-05-06T04:21:27.034Z,9.90
2023-05-06T04:23:54.779Z,9.90
2023-05-06T04:26:23.352Z,9.90
2023-05-06T04:28:51.003Z,9.90
2023-05-06T04:31:21.146Z,9.90
2023-05-06T04:33:52.193Z,10.00
2023-05-06T04:36:22.614Z,10.10
2023-05-06T04:38:52.386Z,10.10
2023-05-06T04:41:23.941Z,10.20
2023-05-06T04:43:51.009Z,10.20
2023-05-06T04:46:21.524Z,10.20
2023-05-06T04:48:49.924Z,10.20
2023-05-06T04:51:18.862Z,10.30
2023-05-06T04:53:46.781Z,10.30
2023-05-06T04:56:13.991Z,10.30
2023-05-06T04:58:40.956Z,10.40
2023-05-06T05:01:12.333Z,10.50
2023-05-06T05:03:40.453Z,10.50
2023-05-06T05:06:08.626Z,10.70
2023-05-06T05:08:39.243Z,10.80
2023-05-06T05:11:10.791Z,11.00
2023-05-06T05:13:42.496Z,11.20
2023-05-06T05:16:12.830Z,11.40
2023-05-06T05:18:40.001Z,11.70
2023-05-06T05:21:08.729Z,12.00
2023-05-06T05:23:35.875Z,12.20
2023-05-06T05:26:03.733Z,12.60
2023-05-06T05:28:31.342Z,12.90
2023-05-06T05:31:06.084Z,13.30
2023-05-06T05:33:33.756Z,13.60
2023-05-06T05:36:01.526Z,13.90
2023-05-06T05:38:29.345Z,14.10
2023-05-06T05:40:56.444Z,14.10
2023-05-06T05:43:26.004Z,14.00
2023-05-06T05:45:53.594Z,13.90
2023-05-06T05:48:21.374Z,13.90
2023-05-06T05:50:48.172Z,13.80
2023-05-06T05:53:15.268Z,13.80
2023-05-06T05:55:42.118Z,13.70
2023-05-06T05:58:14.170Z,13.80
2023-05-06T06:00:41.090Z,13.80
2023-05-06T06:03:08.675Z,13.80
2023-05-06T06:05:37.066Z,13.90
2023-05-06T06:08:04.481Z,13.90
2023-05-06T06:10:33.581Z,13.90
2023-05-06T06:13:03.442Z,14.00
2023-05-06T06:15:34.369Z,14.00
2023-05-06T06:18:02.317Z,14.00
2023-05-06T06:20:31.857Z,14.00
2023-05-06T06:22:59.142Z,14.00
2023-05-06T06:25:26.339Z,14.10
2023-05-06T06:27:56.072Z,14.10
2023-05-06T06:30:26.618Z,14.20
2023-05-06T06:32:54.559Z,14.40
2023-05-06T06:35:23.784Z,14.50
2023-05-06T06:37:50.718Z,14.60
2023-05-06T06:40:17.682Z,14.70
2023-05-06T06:42:44.781Z,14.80
2023-05-06T06:45:12.177Z,14.90
2023-05-06T06:47:39.450Z,15.00
2023-05-06T06:50:08.871Z,15.20
2023-05-06T06:52:37.545Z,15.40
2023-05-06T06:55:06.594Z,15.40
2023-05-06T06:57:33.524Z,15.60
2023-05-06T07:00:01.499Z,15.90
2023-05-06T07:02:29.267Z,16.60
2023-05-06T07:04:56.528Z,16.90
2023-05-06T07:07:23.458Z,17.10
2023-05-06T07:09:50.710Z,17.20
2023-05-06T07:12:20.016Z,17.10
2023-05-06T07:14:46.966Z,17.00
2023-05-06T07:17:16.705Z,17.10
2023-05-06T07:19:43.741Z,17.50
2023-05-06T07:22:10.901Z,18.40
2023-05-06T07:24:38.135Z,18.60
2023-05-06T07:27:05.071Z,18.90
2023-05-06T07:29:31.991Z,19.00
2023-05-06T07:31:58.951Z,19.10
2023-05-06T07:34:48.809Z,19.30
2023-05-06T07:37:18.270Z,19.60
2023-05-06T07:39:45.323Z,19.80
2023-05-06T07:42:13.523Z,19.90
2023-05-06T07:44:43.403Z,19.90
2023-05-06T07:47:31.804Z,19.90
2023-05-06T07:50:08.725Z,19.90
2023-05-06T07:52:35.855Z,19.90
2023-05-06T07:55:04.126Z,19.80
2023-05-06T07:57:34.251Z,19.90
2023-05-06T08:00:01.225Z,20.10
2023-05-06T08:02:28.312Z,20.30
2023-05-06T08:04:55.869Z,20.30
2023-05-06T08:07:22.768Z,20.20
2023-05-06T08:09:49.707Z,20.00
2023-05-06T08:12:17.854Z,19.90
2023-05-06T08:14:45.070Z,19.80
2023-05-06T08:17:13.304Z,19.80
2023-05-06T08:19:40.290Z,19.80
2023-05-06T08:22:11.681Z,19.90
2023-05-06T08:24:38.549Z,20.10
2023-05-06T08:27:05.687Z,20.40
2023-05-06T08:29:32.509Z,20.70
2023-05-06T08:32:01.537Z,20.90
2023-05-06T08:34:29.682Z,21.20
2023-05-06T08:36:56.845Z,21.30
2023-05-06T08:39:26.014Z,21.50
2023-05-06T08:41:54.546Z,21.70
2023-05-06T08:44:25.572Z,22.10
2023-05-06T08:46:54.504Z,22.60
2023-05-06T08:49:24.121Z,23.10
2023-05-06T08:51:56.034Z,23.20
2023-05-06T08:54:26.199Z,23.60
2023-05-06T08:56:57.399Z,24.30
2023-05-06T08:59:24.859Z,24.90
2023-05-06T09:01:53.283Z,25.40
2023-05-06T09:04:20.386Z,26.00
2023-05-06T09:06:47.289Z,27.00
2023-05-06T09:09:17.276Z,28.00
2023-05-06T09:11:53.501Z,28.60
2023-05-06T09:14:21.793Z,29.00
2023-05-06T09:16:50.982Z,29.40
2023-05-06T09:19:21.299Z,29.90
2023-05-06T09:21:51.132Z,30.50
2023-05-06T09:24:18.387Z,30.60
2023-05-06T09:26:46.418Z,29.20
2023-05-06T09:29:13.977Z,28.60
2023-05-06T09:31:44.314Z,28.70
2023-05-06T09:34:12.431Z,29.40
2023-05-06T09:36:40.649Z,30.30
2023-05-06T09:39:07.853Z,31.00
2023-05-06T09:41:35.470Z,31.20
2023-05-06T09:44:02.479Z,31.60
2023-05-06T09:46:29.915Z,31.80
2023-05-06T09:48:58.232Z,31.60
2023-05-06T09:51:27.821Z,31.30
2023-05-06T09:53:57.685Z,30.50
2023-05-06T09:56:26.473Z,29.50
2023-05-06T09:58:55.066Z,30.30
2023-05-06T10:01:35.190Z,31.20
2023-05-06T10:04:08.166Z,32.10
2023-05-06T10:06:37.565Z,33.00
2023-05-06T10:14:19.922Z,32.00
2023-05-06T10:16:49.683Z,32.60
2023-05-06T10:19:24.314Z,33.00
2023-05-06T10:22:03.412Z,33.20
2023-05-06T10:24:37.290Z,32.70
2023-05-06T10:27:06.437Z,33.00
2023-05-06T10:29:37.694Z,33.00
2023-05-06T10:32:05.204Z,32.30
2023-05-06T10:34:39.026Z,31.50
2023-05-06T10:37:06.433Z,30.40
2023-05-06T10:39:33.620Z,29.60
2023-05-06T10:42:01.984Z,29.90
2023-05-06T10:45:07.210Z,30.80
2023-05-06T10:47:54.590Z,31.10
2023-05-06T10:50:26.476Z,30.90
2023-05-06T10:52:59.380Z,30.50
2023-05-06T10:56:07.268Z,31.00
2023-05-06T10:58:36.569Z,31.50
2023-05-06T11:01:03.542Z,31.20
2023-05-06T11:03:34.581Z,30.80
2023-05-06T11:06:02.131Z,30.60
2023-05-06T11:08:30.434Z,30.30
2023-05-06T11:10:57.453Z,30.10
2023-05-06T11:13:29.415Z,30.10
2023-05-06T11:15:57.694Z,30.20
2023-05-06T11:18:24.956Z,30.40
2023-05-06T11:21:02.681Z,30.40
2023-05-06T11:23:55.045Z,30.80
2023-05-06T11:26:21.993Z,31.30
2023-05-06T11:28:51.269Z,31.70
2023-05-06T11:31:21.702Z,32.00
2023-05-06T11:33:50.048Z,32.20
2023-05-06T11:36:21.358Z,32.30
2023-05-06T11:38:53.328Z,32.60
2023-05-06T11:41:22.301Z,33.00
2023-05-06T11:43:52.741Z,33.40
2023-05-06T11:46:22.599Z,33.50
2023-05-06T11:48:50.674Z,32.70
2023-05-06T11:51:22.877Z,33.10
2023-05-06T11:53:50.095Z,33.60
2023-05-06T11:56:17.102Z,33.70
2023-05-06T11:58:44.345Z,32.70
2023-05-06T12:01:11.246Z,31.80
2023-05-06T12:03:38.669Z,31.00
2023-05-06T12:06:05.867Z,30.40
2023-05-06T12:08:34.839Z,30.00
2023-05-06T12:11:03.838Z,29.40
2023-05-06T12:13:39.146Z,29.40
2023-05-06T12:16:09.380Z,29.40
2023-05-06T12:18:36.507Z,29.50
2023-05-06T12:21:11.917Z,30.70
2023-05-06T12:23:54.103Z,31.90
2023-05-06T12:26:22.362Z,32.60
2023-05-06T12:29:10.849Z,32.10
2023-05-06T12:31:37.964Z,32.00
2023-05-06T12:34:05.577Z,32.00
2023-05-06T12:36:33.028Z,32.10
2023-05-06T12:39:01.831Z,32.60
2023-05-06T12:41:46.946Z,32.80
2023-05-06T12:44:36.991Z,32.70
2023-05-06T12:47:09.174Z,31.80
2023-05-06T12:50:12.089Z,31.00
2023-05-06T12:52:44.868Z,30.30
2023-05-06T12:55:11.763Z,30.10
2023-05-06T12:57:38.592Z,30.10
2023-05-06T13:00:07.447Z,30.10
2023-05-06T13:02:34.736Z,29.90
2023-05-06T13:05:03.650Z,29.40
2023-05-06T13:07:30.583Z,29.00
2023-05-06T13:09:57.807Z,28.80
2023-05-06T13:12:24.822Z,28.70
2023-05-06T13:14:52.336Z,28.50
2023-05-06T13:17:19.662Z,28.20
2023-05-06T13:19:47.908Z,28.00
2023-05-06T13:22:14.996Z,27.80
2023-05-06T13:24:43.798Z,28.00
2023-05-06T13:27:10.861Z,28.70
2023-05-06T13:29:38.174Z,29.50
2023-05-06T13:32:09.217Z,29.60
2023-05-06T13:34:37.814Z,29.20
2023-05-06T13:37:04.992Z,28.70
2023-05-06T13:39:31.953Z,28.50
2023-05-06T13:41:59.849Z,28.20
2023-05-06T13:44:26.934Z,28.00
2023-05-06T13:49:39.024Z,27.50
2023-05-06T13:52:07.980Z,27.20
2023-05-06T13:54:37.765Z,27.10
2023-05-06T13:57:04.849Z,27.10
2023-05-06T13:59:31.747Z,27.40
2023-05-06T14:02:01.398Z,27.60
2023-05-06T14:04:28.848Z,27.80
2023-05-06T14:06:58.698Z,27.90
2023-05-06T14:09:25.676Z,28.20
2023-05-06T14:11:53.961Z,28.30
2023-05-06T14:14:22.725Z,28.30
2023-05-06T14:16:53.469Z,28.00
2023-05-06T14:19:25.789Z,27.60
2023-05-06T14:21:52.725Z,27.40
2023-05-06T14:24:24.069Z,27.20
2023-05-06T14:27:05.366Z,27.10
2023-05-06T14:29:32.373Z,27.00
2023-05-06T14:31:59.310Z,27.00
2023-05-06T14:34:36.807Z,27.00
2023-05-06T14:37:08.644Z,26.90
2023-05-06T14:39:39.338Z,27.00
2023-05-06T14:42:06.667Z,26.90
2023-05-06T14:47:18.397Z,27.00
2023-05-06T14:49:53.067Z,27.20
2023-05-06T14:52:30.661Z,27.20
2023-05-06T14:54:58.016Z,27.20
2023-05-06T15:00:15.093Z,26.90
2023-05-06T15:02:42.076Z,26.90
2023-05-06T15:05:10.484Z,26.90
2023-05-06T15:07:37.757Z,26.90
2023-05-06T15:10:05.168Z,26.80
2023-05-06T15:12:32.136Z,26.60
2023-05-06T15:14:59.193Z,26.40
2023-05-06T15:17:29.188Z,26.30
2023-05-06T15:19:57.422Z,26.20
2023-05-06T15:22:35.897Z,26.00
2023-05-06T15:25:04.373Z,25.90
2023-05-06T15:27:32.511Z,25.80
2023-05-06T15:30:04.833Z,25.70
2023-05-06T15:32:32.649Z,25.70
2023-05-06T15:34:59.643Z,25.60
2023-05-06T15:37:29.345Z,25.50
2023-05-06T15:39:57.763Z,25.50
2023-05-06T15:42:24.703Z,25.40
2023-05-06T15:44:53.486Z,25.30
2023-05-06T15:47:20.896Z,25.30
2023-05-06T15:49:54.338Z,25.30
2023-05-06T15:52:34.581Z,25.30
2023-05-06T15:55:01.839Z,25.20
2023-05-06T15:57:34.443Z,25.20
2023-05-06T16:00:04.547Z,25.10
2023-05-06T16:02:32.864Z,25.10
2023-05-06T16:05:01.105Z,25.10
2023-05-06T16:07:29.508Z,25.00
2023-05-06T16:09:56.750Z,24.90
2023-05-06T16:12:23.583Z,24.90
2023-05-06T16:14:51.836Z,24.80
2023-05-06T16:17:18.685Z,24.70
2023-05-06T16:19:45.574Z,24.70
2023-05-06T16:22:13.083Z,24.60
2023-05-06T16:24:40.160Z,24.60
2023-05-06T16:27:07.139Z,24.50
2023-05-06T16:29:35.448Z,24.50
2023-05-06T16:32:02.656Z,24.40
2023-05-06T16:34:32.201Z,24.40
2023-05-06T16:37:00.670Z,24.30
2023-05-06T16:39:28.452Z,24.20
2023-05-06T16:41:55.696Z,24.20
2023-05-06T16:44:22.671Z,24.20
2023-05-06T16:46:52.069Z,24.10
2023-05-06T16:49:21.600Z,24.00
2023-05-06T16:51:53.466Z,23.90
2023-05-06T16:54:21.188Z,23.80
2023-05-06T16:56:52.611Z,23.70
2023-05-06T16:59:22.677Z,23.70
2023-05-06T17:01:51.419Z,23.60
2023-05-06T17:04:18.675Z,23.50
2023-05-06T17:06:48.458Z,23.50
2023-05-06T17:09:22.606Z,23.40
2023-05-06T17:11:50.726Z,23.30
2023-05-06T17:14:17.581Z,23.20
2023-05-06T17:16:47.261Z,23.20
2023-05-06T17:19:26.392Z,23.10
2023-05-06T17:21:53.677Z,23.00
2023-05-06T17:24:35.385Z,22.90
2023-05-06T17:27:04.343Z,22.80
2023-05-06T17:29:32.908Z,22.80
2023-05-06T17:32:00.850Z,22.70
2023-05-06T17:34:30.017Z,22.70
2023-05-06T17:37:00.509Z,22.60
2023-05-06T17:39:31.816Z,22.50
2023-05-06T17:42:11.714Z,22.40
2023-05-06T17:44:49.858Z,22.20
2023-05-06T17:50:02.427Z,21.60
2023-05-06T17:52:29.607Z,21.20
2023-05-06T17:55:11.301Z,20.90
2023-05-06T17:57:42.980Z,20.60
2023-05-06T18:00:15.747Z,20.20
2023-05-06T18:02:43.399Z,20.00
2023-05-06T18:05:12.331Z,19.80
2023-05-06T18:07:40.722Z,19.60
2023-05-06T18:10:11.351Z,19.40
2023-05-06T18:12:38.647Z,19.30
2023-05-06T18:15:11.042Z,19.20
2023-05-06T18:17:41.067Z,19.10
2023-05-06T18:20:10.439Z,19.00
2023-05-06T18:22:39.994Z,19.00
2023-05-06T18:25:09.230Z,18.90
2023-05-06T18:27:37.632Z,18.80
2023-05-06T18:30:06.368Z,18.70
2023-05-06T18:32:34.777Z,18.60
2023-05-06T18:35:01.904Z,18.60
2023-05-06T18:37:29.629Z,18.50
2023-05-06T18:39:56.853Z,18.50
2023-05-06T18:42:27.376Z,18.40
2023-05-06T18:44:56.370Z,18.40
2023-05-06T18:47:37.012Z,18.30
2023-05-06T18:50:05.251Z,18.30
2023-05-06T18:52:33.504Z,18.20
2023-05-06T18:55:00.365Z,18.20
2023-05-06T18:57:32.908Z,18.20
2023-05-06T19:00:00.304Z,18.20
2023-05-06T19:02:30.049Z,18.10
2023-05-06T19:04:58.239Z,18.10
2023-05-06T19:07:26.181Z,18.10
2023-05-06T19:09:52.978Z,18.10
2023-05-06T19:12:24.199Z,18.00
2023-05-06T19:14:53.610Z,18.00
2023-05-06T19:20:02.600Z,18.00
2023-05-06T19:22:33.742Z,17.90
2023-05-06T19:25:02.362Z,17.90
2023-05-06T19:27:32.618Z,17.90
2023-05-06T19:30:28.481Z,17.80
2023-05-06T19:32:57.488Z,17.80
2023-05-06T19:35:27.599Z,17.80
2023-05-06T19:37:54.464Z,17.70
2023-05-06T19:40:22.546Z,17.70
2023-05-06T19:42:55.016Z,17.60
2023-05-06T19:45:23.993Z,17.60
2023-05-06T19:47:50.829Z,17.60
2023-05-06T19:50:17.933Z,17.50
2023-05-06T19:52:45.013Z,17.50
2023-05-06T19:55:13.123Z,17.50
2023-05-06T19:57:40.347Z,17.40
2023-05-06T20:00:10.945Z,17.40
2023-05-06T20:02:39.029Z,17.40
2023-05-06T20:05:06.763Z,17.30
2023-05-06T20:07:34.086Z,17.30
2023-05-06T20:10:01.260Z,17.30
2023-05-06T20:12:28.179Z,17.20
2023-05-06T20:14:56.148Z,17.20
2023-05-06T20:17:24.062Z,17.20
2023-05-06T20:19:52.678Z,17.20
2023-05-06T20:22:22.311Z,17.20
2023-05-06T20:24:49.784Z,17.10
2023-05-06T20:27:17.004Z,17.10
2023-05-06T20:29:51.230Z,17.10
2023-05-06T20:32:19.717Z,17.00
2023-05-06T20:34:46.657Z,17.00
2023-05-06T20:37:14.794Z,17.00
2023-05-06T20:39:41.701Z,16.90
2023-05-06T20:42:09.852Z,16.90
2023-05-06T20:44:38.184Z,16.90
2023-05-06T20:47:10.669Z,16.90
2023-05-06T20:49:43.354Z,16.80
2023-05-06T20:52:14.628Z,16.80
2023-05-06T20:54:43.744Z,16.80
2023-05-06T20:57:12.191Z,16.80
2023-05-06T20:59:39.469Z,16.80
2023-05-06T21:02:06.692Z,16.80
2023-05-06T21:04:34.031Z,16.70
2023-05-06T21:07:01.630Z,16.70
2023-05-06T21:09:30.258Z,16.70
2023-05-06T21:11:57.174Z,16.70
2023-05-06T21:14:27.921Z,16.70
2023-05-06T21:16:55.539Z,16.60
2023-05-06T21:19:24.459Z,16.60
2023-05-06T21:21:51.726Z,16.60
2023-05-06T21:24:22.867Z,16.60
2023-05-06T21:26:52.219Z,16.60
2023-05-06T21:29:21.627Z,16.60
2023-05-06T21:31:49.763Z,16.60
2023-05-06T21:34:17.409Z,16.50
2023-05-06T21:36:47.123Z,16.40
2023-05-06T21:39:14.643Z,16.40
2023-05-06T21:41:41.645Z,16.30
2023-05-06T21:44:09.392Z,16.30
2023-05-06T21:46:38.253Z,16.20
2023-05-06T21:49:07.082Z,16.20
2023-05-06T21:51:36.267Z,16.20
2023-05-06T21:54:03.805Z,16.10
2023-05-06T21:56:31.786Z,16.10
2023-05-06T21:58:58.936Z,16.10
2023-05-06T22:01:29.410Z,16.10
2023-05-06T22:03:58.569Z,16.10
2023-05-06T22:06:25.706Z,16.10
2023-05-06T22:08:52.622Z,16.00
2023-05-06T22:11:23.911Z,16.10
2023-05-06T22:13:53.865Z,16.00
2023-05-06T22:16:20.938Z,16.00
2023-05-06T22:18:48.901Z,16.00
2023-05-06T22:21:15.937Z,16.00
2023-05-06T22:23:43.031Z,15.90
2023-05-06T22:26:10.050Z,15.90
2023-05-06T22:28:40.115Z,15.90
2023-05-06T22:31:08.568Z,15.90
2023-05-06T22:33:35.532Z,15.80
2023-05-06T22:36:02.380Z,15.80
2023-05-06T22:38:29.632Z,15.80
2023-05-06T22:40:56.849Z,15.80
2023-05-06T22:43:23.806Z,15.80
2023-05-06T22:45:51.840Z,15.80
2023-05-06T22:48:18.654Z,15.80
2023-05-06T22:50:46.872Z,15.80
2023-05-06T22:53:15.760Z,15.80
2023-05-06T22:55:43.876Z,15.80
2023-05-06T22:58:10.979Z,15.80
2023-05-06T23:00:37.893Z,15.80
2023-05-06T23:03:06.076Z,15.80
2023-05-06T23:05:34.270Z,15.80
2023-05-06T23:08:01.177Z,15.80
2023-05-06T23:10:28.026Z,15.80
2023-05-06T23:12:59.105Z,15.80
2023-05-06T23:15:28.492Z,15.70
2023-05-06T23:17:56.903Z,15.70
2023-05-06T23:20:25.075Z,15.70
2023-05-06T23:22:52.068Z,15.70
2023-05-06T23:25:19.140Z,15.70
2023-05-06T23:27:45.982Z,15.70
2023-05-06T23:30:13.653Z,15.70
2023-05-06T23:32:41.267Z,15.70
2023-05-06T23:35:08.703Z,15.60
2023-05-06T23:37:36.149Z,15.60
2023-05-06T23:40:04.918Z,15.60
2023-05-06T23:42:33.743Z,15.60
2023-05-06T23:45:01.023Z,15.60
2023-05-06T23:47:27.973Z,15.50
2023-05-06T23:49:56.282Z,15.50
2023-05-06T23:52:23.139Z,15.50
2023-05-06T23:54:50.260Z,15.50
2023-05-06T23:57:17.229Z,15.40
2023-05-06T23:59:44.461Z,15.40
